createdAt,value
2022-08-19T00:00:02.005Z,19.84
2022-08-19T00:01:01.995Z,19.84
2022-08-19T00:02:01.979Z,19.81
2022-08-19T00:03:01.965Z,19.81
2022-08-19T00:04:01.951Z,19.80
2022-08-19T00:05:01.993Z,19.78
2022-08-19T00:06:01.924Z,19.73
2022-08-19T00:07:01.912Z,19.73
2022-08-19T00:08:01.898Z,19.73
2022-08-19T00:09:01.884Z,19.72
2022-08-19T00:10:01.869Z,19.70
2022-08-19T00:11:01.857Z,19.65
2022-08-19T00:12:01.843Z,19.65
2022-08-19T00:13:01.830Z,19.62
2022-08-19T00:14:01.816Z,19.62
2022-08-19T00:15:01.803Z,19.61
2022-08-19T00:16:01.792Z,19.61
2022-08-19T00:17:01.782Z,19.60
2022-08-19T00:18:01.762Z,19.60
2022-08-19T00:19:01.751Z,19.58
2022-08-19T00:20:01.737Z,19.60
2022-08-19T00:21:01.724Z,19.55
2022-08-19T00:22:01.711Z,19.54
2022-08-19T00:23:01.698Z,19.50
2022-08-19T00:24:01.683Z,19.54
2022-08-19T00:25:02.204Z,19.53
2022-08-19T00:26:01.657Z,19.49
2022-08-19T00:27:25.669Z,19.47
2022-08-19T00:28:01.631Z,19.45
2022-08-19T00:29:01.620Z,19.45
2022-08-19T00:30:01.603Z,19.42
2022-08-19T00:31:01.592Z,19.45
2022-08-19T00:32:01.579Z,19.45
2022-08-19T00:33:01.566Z,19.45
2022-08-19T00:34:01.571Z,19.47
2022-08-19T00:35:01.541Z,19.53
2022-08-19T00:36:01.529Z,19.50
2022-08-19T00:37:01.514Z,19.49
2022-08-19T00:38:01.499Z,19.47
2022-08-19T00:39:01.493Z,19.45
2022-08-19T00:40:01.563Z,19.46
2022-08-19T00:41:01.461Z,19.45
2022-08-19T00:42:01.446Z,19.46
2022-08-19T00:43:01.440Z,19.45
2022-08-19T00:44:01.418Z,19.43
2022-08-19T00:45:01.407Z,19.45
2022-08-19T00:46:01.395Z,19.42
2022-08-19T00:47:01.384Z,19.43
2022-08-19T00:48:01.365Z,19.46
2022-08-19T00:49:01.353Z,19.46
2022-08-19T00:50:01.339Z,19.49
2022-08-19T00:51:01.325Z,19.50
2022-08-19T00:52:01.311Z,19.49
2022-08-19T00:53:01.298Z,19.53
2022-08-19T00:54:01.283Z,19.55
2022-08-19T00:55:01.272Z,19.55
2022-08-19T00:56:01.257Z,19.58
2022-08-19T00:57:01.244Z,19.61
2022-08-19T00:58:01.230Z,19.61
2022-08-19T00:59:01.217Z,19.62
2022-08-19T01:00:03.052Z,19.65
2022-08-19T01:01:01.190Z,19.64
2022-08-19T01:02:01.175Z,19.64
2022-08-19T01:03:01.163Z,19.65
2022-08-19T01:04:01.148Z,19.64
2022-08-19T01:05:01.136Z,19.65
2022-08-19T01:06:01.128Z,19.68
2022-08-19T01:07:01.108Z,19.73
2022-08-19T01:08:01.094Z,19.76
2022-08-19T01:09:01.081Z,19.78
2022-08-19T01:10:01.067Z,19.78
2022-08-19T01:11:01.057Z,19.84
2022-08-19T01:12:01.041Z,19.91
2022-08-19T01:13:01.031Z,19.92
2022-08-19T01:14:01.012Z,19.98
2022-08-19T01:15:01.002Z,19.99
2022-08-19T01:16:00.986Z,20.01
2022-08-19T01:17:00.973Z,20.02
2022-08-19T01:18:00.959Z,20.02
2022-08-19T01:19:00.947Z,20.03
2022-08-19T01:20:00.933Z,20.01
2022-08-19T01:21:00.919Z,19.99
2022-08-19T01:22:00.905Z,20.01
2022-08-19T01:23:02.892Z,19.99
2022-08-19T01:24:00.878Z,20.03
2022-08-19T01:25:00.866Z,20.01
2022-08-19T01:26:00.851Z,20.01
2022-08-19T01:27:00.838Z,19.98
2022-08-19T01:28:10.974Z,19.99
2022-08-19T01:29:05.246Z,20.01
2022-08-19T01:30:00.797Z,19.98
2022-08-19T01:31:00.807Z,19.99
2022-08-19T01:32:00.771Z,20.01
2022-08-19T01:33:00.758Z,20.01
2022-08-19T01:34:00.744Z,19.95
2022-08-19T01:35:00.732Z,19.94
2022-08-19T01:36:00.716Z,19.94
2022-08-19T01:37:00.704Z,19.88
2022-08-19T01:38:00.689Z,19.88
2022-08-19T01:39:00.677Z,19.88
2022-08-19T01:40:00.705Z,19.86
2022-08-19T01:41:00.649Z,19.84
2022-08-19T01:42:00.635Z,19.86
2022-08-19T01:43:00.633Z,19.83
2022-08-19T01:44:16.950Z,19.80
2022-08-19T01:45:00.595Z,19.81
2022-08-19T01:46:00.580Z,19.80
2022-08-19T01:47:00.568Z,19.78
2022-08-19T01:48:01.736Z,19.78
2022-08-19T01:49:00.540Z,19.78
2022-08-19T01:50:00.528Z,19.78
2022-08-19T01:51:00.515Z,19.78
2022-08-19T01:52:00.502Z,19.80
2022-08-19T01:53:03.633Z,19.81
2022-08-19T01:54:00.473Z,19.80
2022-08-19T01:55:00.461Z,19.77
2022-08-19T01:56:00.446Z,19.76
2022-08-19T01:57:00.433Z,19.77
2022-08-19T01:58:00.419Z,19.67
2022-08-19T01:59:00.406Z,19.67
2022-08-19T02:00:00.392Z,19.62
2022-08-19T02:01:00.436Z,19.64
2022-08-19T02:02:00.366Z,19.58
2022-08-19T02:03:00.354Z,19.57
2022-08-19T02:04:00.339Z,19.54
2022-08-19T02:05:00.337Z,19.53
2022-08-19T02:06:00.313Z,19.47
2022-08-19T02:07:00.301Z,19.45
2022-08-19T02:08:00.289Z,19.46
2022-08-19T02:09:00.277Z,19.43
2022-08-19T02:10:00.260Z,19.46
2022-08-19T02:11:00.248Z,19.43
2022-08-19T02:12:00.234Z,19.43
2022-08-19T02:13:00.226Z,19.43
2022-08-19T02:14:00.211Z,19.45
2022-08-19T02:15:00.207Z,19.46
2022-08-19T02:16:00.184Z,19.47
2022-08-19T02:17:00.171Z,19.46
2022-08-19T02:18:00.161Z,19.45
2022-08-19T02:19:00.146Z,19.45
2022-08-19T02:20:00.162Z,19.43
2022-08-19T02:21:00.123Z,19.45
2022-08-19T02:22:00.107Z,19.45
2022-08-19T02:23:00.096Z,19.46
2022-08-19T02:24:00.082Z,19.46
2022-08-19T02:25:00.073Z,19.45
2022-08-19T02:26:00.057Z,19.45
2022-08-19T02:27:00.050Z,19.47
2022-08-19T02:28:00.030Z,19.49
2022-08-19T02:29:00.120Z,19.47
2022-08-19T02:30:00.006Z,19.47
2022-08-19T02:30:59.993Z,19.50
2022-08-19T02:31:59.980Z,19.49
2022-08-19T02:32:59.977Z,19.53
2022-08-19T02:33:59.954Z,19.53
2022-08-19T02:34:59.942Z,19.54
2022-08-19T02:35:59.931Z,19.53
2022-08-19T02:37:03.629Z,19.54
2022-08-19T02:37:59.905Z,19.50
2022-08-19T02:38:59.890Z,19.53
2022-08-19T02:39:59.937Z,19.47
2022-08-19T02:40:59.862Z,19.45
2022-08-19T02:41:59.851Z,19.38
2022-08-19T02:42:59.836Z,19.32
2022-08-19T02:44:30.313Z,19.31
2022-08-19T02:44:59.813Z,19.30
2022-08-19T02:45:59.799Z,19.30
2022-08-19T02:46:59.788Z,19.27
2022-08-19T02:47:59.777Z,19.27
2022-08-19T02:48:59.763Z,19.24
2022-08-19T02:49:59.750Z,19.22
2022-08-19T02:50:59.736Z,19.21
2022-08-19T02:51:59.724Z,19.18
2022-08-19T02:52:59.710Z,19.15
2022-08-19T02:53:59.723Z,19.13
2022-08-19T02:54:59.686Z,19.09
2022-08-19T02:55:59.674Z,19.07
2022-08-19T02:56:59.662Z,19.02
2022-08-19T02:57:59.649Z,19.05
2022-08-19T02:58:59.635Z,19.03
2022-08-19T02:59:59.627Z,18.99
2022-08-19T03:00:59.778Z,19.00
2022-08-19T03:01:59.598Z,18.98
2022-08-19T03:02:59.585Z,18.95
2022-08-19T03:03:59.574Z,18.94
2022-08-19T03:04:59.561Z,18.90
2022-08-19T03:05:59.551Z,18.90
2022-08-19T03:07:10.449Z,18.91
2022-08-19T03:07:59.523Z,18.87
2022-08-19T03:08:59.509Z,18.87
2022-08-19T03:09:59.498Z,18.88
2022-08-19T03:10:59.485Z,18.82
2022-08-19T03:11:59.476Z,18.84
2022-08-19T03:12:59.459Z,18.81
2022-08-19T03:13:59.448Z,18.73
2022-08-19T03:14:59.434Z,18.66
2022-08-19T03:15:59.422Z,18.66
2022-08-19T03:16:59.409Z,18.63
2022-08-19T03:17:59.397Z,18.65
2022-08-19T03:18:59.384Z,18.66
2022-08-19T03:19:59.372Z,18.67
2022-08-19T03:20:59.357Z,18.70
2022-08-19T03:22:59.333Z,18.84
2022-08-19T03:23:59.325Z,18.91
2022-08-19T03:24:59.307Z,18.94
2022-08-19T03:26:15.958Z,18.95
2022-08-19T03:26:59.282Z,18.94
2022-08-19T03:27:59.272Z,18.98
2022-08-19T03:28:59.257Z,19.00
2022-08-19T03:29:59.246Z,19.02
2022-08-19T03:30:59.233Z,19.00
2022-08-19T03:31:59.223Z,18.99
2022-08-19T03:32:59.308Z,19.02
2022-08-19T03:33:59.201Z,18.99
2022-08-19T03:34:59.183Z,18.99
2022-08-19T03:35:59.171Z,19.00
2022-08-19T03:36:59.159Z,19.03
2022-08-19T03:37:59.149Z,19.00
2022-08-19T03:38:59.926Z,18.98
2022-08-19T03:39:59.172Z,18.98
2022-08-19T03:40:59.108Z,18.95
2022-08-19T03:42:31.751Z,18.95
2022-08-19T03:42:59.137Z,18.92
2022-08-19T03:43:59.076Z,18.91
2022-08-19T03:44:59.062Z,18.88
2022-08-19T03:45:59.048Z,18.91
2022-08-19T03:46:59.035Z,18.87
2022-08-19T03:47:59.021Z,18.85
2022-08-19T03:48:59.007Z,18.82
2022-08-19T03:49:58.997Z,18.80
2022-08-19T03:50:58.983Z,18.80
2022-08-19T03:51:58.971Z,18.75
2022-08-19T03:52:58.958Z,18.70
2022-08-19T03:53:58.946Z,18.66
2022-08-19T03:54:58.933Z,18.62
2022-08-19T03:55:58.921Z,18.57
2022-08-19T03:56:58.908Z,18.55
2022-08-19T03:57:59.344Z,18.52
2022-08-19T03:58:58.881Z,18.51
2022-08-19T04:00:04.020Z,18.54
2022-08-19T04:00:58.885Z,18.57
2022-08-19T04:01:58.843Z,18.60
2022-08-19T04:03:00.588Z,18.62
2022-08-19T04:03:58.817Z,18.60
2022-08-19T04:04:58.803Z,18.62
2022-08-19T04:05:58.791Z,18.63
2022-08-19T04:06:58.775Z,18.60
2022-08-19T04:07:58.765Z,18.58
2022-08-19T04:08:58.750Z,18.57
2022-08-19T04:09:58.739Z,18.52
2022-08-19T04:10:58.725Z,18.50
2022-08-19T04:11:58.717Z,18.44
2022-08-19T04:12:58.698Z,18.41
2022-08-19T04:13:58.688Z,18.37
2022-08-19T04:14:58.672Z,18.37
2022-08-19T04:15:58.660Z,18.37
2022-08-19T04:16:58.646Z,18.32
2022-08-19T04:17:58.634Z,18.32
2022-08-19T04:18:58.621Z,18.29
2022-08-19T04:19:58.609Z,18.26
2022-08-19T04:20:58.593Z,18.25
2022-08-19T04:21:58.582Z,18.25
2022-08-19T04:22:58.568Z,18.25
2022-08-19T04:23:58.559Z,18.25
2022-08-19T04:24:58.542Z,18.25
2022-08-19T04:25:58.531Z,18.25
2022-08-19T04:26:58.517Z,18.25
2022-08-19T04:27:58.505Z,18.22
2022-08-19T04:28:58.490Z,18.20
2022-08-19T04:29:58.488Z,18.20
2022-08-19T04:30:58.464Z,18.20
2022-08-19T04:31:58.457Z,18.20
2022-08-19T04:32:58.437Z,18.16
2022-08-19T04:33:58.426Z,18.19
2022-08-19T04:35:01.203Z,18.20
2022-08-19T04:35:58.399Z,18.19
2022-08-19T04:36:58.386Z,18.20
2022-08-19T04:37:58.375Z,18.20
2022-08-19T04:38:58.360Z,18.19
2022-08-19T04:39:58.849Z,18.17
2022-08-19T04:40:58.333Z,18.19
2022-08-19T04:41:58.322Z,18.19
2022-08-19T04:42:58.308Z,18.17
2022-08-19T04:44:02.459Z,18.19
2022-08-19T04:44:58.281Z,18.14
2022-08-19T04:46:01.086Z,18.16
2022-08-19T04:46:58.255Z,18.16
2022-08-19T04:48:26.802Z,18.16
2022-08-19T04:48:58.229Z,18.11
2022-08-19T04:49:58.217Z,18.14
2022-08-19T04:50:58.203Z,18.13
2022-08-19T04:51:58.191Z,18.11
2022-08-19T04:52:58.178Z,18.11
2022-08-19T04:53:58.165Z,18.11
2022-08-19T04:54:58.151Z,18.14
2022-08-19T04:55:58.265Z,18.16
2022-08-19T04:56:58.125Z,18.16
2022-08-19T04:57:58.112Z,18.19
2022-08-19T04:58:58.098Z,18.19
2022-08-19T04:59:58.087Z,18.22
2022-08-19T05:00:58.117Z,18.20
2022-08-19T05:01:58.060Z,18.24
2022-08-19T05:02:58.046Z,18.22
2022-08-19T05:03:58.035Z,18.20
2022-08-19T05:04:58.021Z,18.20
2022-08-19T05:05:58.008Z,18.24
2022-08-19T05:07:00.922Z,18.22
2022-08-19T05:07:57.982Z,18.24
2022-08-19T05:08:57.968Z,18.25
2022-08-19T05:09:59.199Z,18.25
2022-08-19T05:10:57.944Z,18.26
2022-08-19T05:11:57.931Z,18.29
2022-08-19T05:12:57.915Z,18.29
2022-08-19T05:13:57.908Z,18.33
2022-08-19T05:14:58.303Z,18.37
2022-08-19T05:15:57.878Z,18.35
2022-08-19T05:17:25.592Z,18.35
2022-08-19T05:17:57.853Z,18.36
2022-08-19T05:18:57.839Z,18.37
2022-08-19T05:19:57.827Z,18.42
2022-08-19T05:20:57.813Z,18.48
2022-08-19T05:21:57.800Z,18.50
2022-08-19T05:22:57.786Z,18.54
2022-08-19T05:23:57.775Z,18.58
2022-08-19T05:25:12.261Z,18.62
2022-08-19T05:25:57.748Z,18.65
2022-08-19T05:26:57.734Z,18.69
2022-08-19T05:27:57.722Z,18.73
2022-08-19T05:28:57.708Z,18.80
2022-08-19T05:29:57.702Z,18.78
2022-08-19T05:30:57.683Z,18.82
2022-08-19T05:31:57.671Z,18.87
2022-08-19T05:32:57.658Z,18.85
2022-08-19T05:33:57.647Z,18.92
2022-08-19T05:34:57.635Z,18.94
2022-08-19T05:35:57.621Z,18.94
2022-08-19T05:36:57.607Z,19.02
2022-08-19T05:37:59.103Z,19.06
2022-08-19T05:38:57.581Z,19.09
2022-08-19T05:39:57.626Z,19.07
2022-08-19T05:40:57.557Z,19.10
2022-08-19T05:41:57.545Z,19.12
2022-08-19T05:42:57.530Z,19.20
2022-08-19T05:43:57.519Z,19.27
2022-08-19T05:44:57.507Z,19.30
2022-08-19T05:45:57.493Z,19.43
2022-08-19T05:46:57.479Z,19.54
2022-08-19T05:47:57.466Z,19.62
2022-08-19T05:48:57.554Z,19.55
2022-08-19T05:50:57.425Z,19.62
2022-08-19T05:51:57.412Z,19.72
2022-08-19T05:52:57.713Z,19.72
2022-08-19T05:53:57.386Z,19.77
2022-08-19T05:54:57.425Z,19.78
2022-08-19T05:55:57.361Z,19.80
2022-08-19T05:56:57.348Z,19.77
2022-08-19T05:57:57.378Z,19.77
2022-08-19T05:58:57.336Z,19.81
2022-08-19T05:59:58.247Z,19.80
2022-08-19T06:00:57.321Z,19.84
2022-08-19T06:01:57.304Z,19.88
2022-08-19T06:02:57.339Z,19.94
2022-08-19T06:03:57.266Z,19.98
2022-08-19T06:04:57.245Z,20.05
2022-08-19T06:05:57.233Z,20.16
2022-08-19T06:06:57.220Z,20.13
2022-08-19T06:07:57.208Z,20.11
2022-08-19T06:08:57.194Z,20.13
2022-08-19T06:10:00.976Z,20.29
2022-08-19T06:10:57.168Z,20.58
2022-08-19T06:11:57.156Z,20.66
2022-08-19T06:12:57.142Z,20.68
2022-08-19T06:13:59.425Z,20.78
2022-08-19T06:15:01.275Z,20.88
2022-08-19T06:15:57.106Z,20.87
2022-08-19T06:16:57.091Z,20.94
2022-08-19T06:17:57.079Z,21.03
2022-08-19T06:18:57.066Z,21.02
2022-08-19T06:19:57.054Z,20.93
2022-08-19T06:20:57.093Z,20.90
2022-08-19T06:21:57.040Z,20.81
2022-08-19T06:22:57.014Z,20.72
2022-08-19T06:23:57.003Z,20.78
2022-08-19T06:24:56.990Z,20.79
2022-08-19T06:25:56.976Z,20.84
2022-08-19T06:27:00.783Z,20.93
2022-08-19T06:28:14.745Z,20.94
2022-08-19T06:28:58.938Z,21.00
2022-08-19T06:29:56.925Z,21.03
2022-08-19T06:30:56.911Z,21.00
2022-08-19T06:31:56.899Z,21.15
2022-08-19T06:32:56.887Z,21.24
2022-08-19T06:33:56.874Z,21.38
2022-08-19T06:34:56.868Z,21.50
2022-08-19T06:35:56.850Z,21.35
2022-08-19T06:36:56.836Z,21.15
2022-08-19T06:37:57.090Z,21.22
2022-08-19T06:38:56.817Z,21.19
2022-08-19T06:39:56.861Z,21.19
2022-08-19T06:40:56.782Z,21.15
2022-08-19T06:41:58.649Z,21.29
2022-08-19T06:42:57.273Z,21.40
2022-08-19T06:43:56.746Z,21.35
2022-08-19T06:44:56.767Z,21.17
2022-08-19T06:45:56.726Z,21.29
2022-08-19T06:46:56.709Z,21.58
2022-08-19T06:47:56.752Z,21.72
2022-08-19T06:48:56.680Z,21.91
2022-08-19T06:50:01.010Z,22.20
2022-08-19T06:50:56.654Z,22.39
2022-08-19T06:51:56.643Z,22.75
2022-08-19T06:52:56.774Z,22.67
2022-08-19T06:53:56.619Z,22.90
2022-08-19T06:54:56.944Z,22.21
2022-08-19T06:55:56.593Z,22.44
2022-08-19T06:56:56.582Z,22.70
2022-08-19T06:57:56.567Z,22.88
2022-08-19T06:58:56.555Z,23.12
2022-08-19T06:59:56.545Z,23.37
2022-08-19T07:00:56.530Z,23.45
2022-08-19T07:01:56.515Z,23.17
2022-08-19T07:03:00.870Z,22.98
2022-08-19T07:03:57.505Z,23.01
2022-08-19T07:04:56.482Z,23.57
2022-08-19T07:05:56.465Z,23.92
2022-08-19T07:06:56.453Z,24.32
2022-08-19T07:07:57.513Z,24.98
2022-08-19T07:08:56.429Z,25.38
2022-08-19T07:10:00.350Z,25.77
2022-08-19T07:10:56.403Z,24.49
2022-08-19T07:11:56.389Z,24.45
2022-08-19T07:12:56.378Z,25.09
2022-08-19T07:13:56.367Z,25.29
2022-08-19T07:14:56.362Z,24.99
2022-08-19T07:15:56.340Z,25.19
2022-08-19T07:16:56.330Z,24.61
2022-08-19T07:17:56.322Z,24.69
2022-08-19T07:18:56.306Z,24.83
2022-08-19T07:19:56.292Z,24.61
2022-08-19T07:20:56.281Z,24.65
2022-08-19T07:21:56.267Z,25.51
2022-08-19T07:23:56.243Z,25.65
2022-08-19T07:24:56.233Z,25.19
2022-08-19T07:25:56.286Z,25.27
2022-08-19T07:26:56.207Z,25.04
2022-08-19T07:27:56.495Z,24.95
2022-08-19T07:28:56.181Z,24.49
2022-08-19T07:29:57.532Z,24.65
2022-08-19T07:30:56.156Z,24.75
2022-08-19T07:31:56.146Z,25.02
2022-08-19T07:32:56.147Z,24.95
2022-08-19T07:33:56.124Z,25.41
2022-08-19T07:34:56.695Z,25.95
2022-08-19T07:35:56.096Z,26.10
2022-08-19T07:36:56.085Z,27.02
2022-08-19T07:37:56.094Z,27.66
2022-08-19T07:38:56.061Z,28.08
2022-08-19T07:39:56.116Z,27.51
2022-08-19T07:40:56.036Z,26.61
2022-08-19T07:41:56.023Z,26.20
2022-08-19T07:42:56.019Z,26.44
2022-08-19T07:43:56.004Z,26.79
2022-08-19T07:44:55.992Z,27.27
2022-08-19T07:45:56.012Z,28.02
2022-08-19T07:46:55.967Z,28.54
2022-08-19T07:47:55.955Z,29.27
2022-08-19T07:48:55.942Z,30.15
2022-08-19T07:49:55.922Z,30.75
2022-08-19T07:50:55.912Z,30.71
2022-08-19T07:51:55.900Z,30.56
2022-08-19T07:52:55.887Z,30.19
2022-08-19T07:53:55.875Z,30.11
2022-08-19T07:54:55.864Z,30.44
2022-08-19T07:55:55.853Z,30.87
2022-08-19T07:56:55.844Z,31.21
2022-08-19T07:57:55.829Z,30.96
2022-08-19T07:59:55.803Z,30.07
2022-08-19T08:00:55.792Z,30.37
2022-08-19T08:01:55.796Z,30.85
2022-08-19T08:02:56.304Z,31.13
2022-08-19T08:03:55.759Z,31.39
2022-08-19T08:04:55.750Z,31.73
2022-08-19T08:05:55.737Z,31.90
2022-08-19T08:06:55.726Z,31.84
2022-08-19T08:07:55.723Z,31.90
2022-08-19T08:08:55.700Z,32.32
2022-08-19T08:10:56.838Z,32.20
2022-08-19T08:11:55.663Z,32.07
2022-08-19T08:13:10.087Z,32.05
2022-08-19T08:14:00.881Z,31.76
2022-08-19T08:14:57.628Z,31.98
2022-08-19T08:15:56.076Z,32.66
2022-08-19T08:16:55.607Z,32.65
2022-08-19T08:17:55.595Z,32.81
2022-08-19T08:18:55.583Z,32.67
2022-08-19T08:19:55.573Z,32.92
2022-08-19T08:20:55.565Z,32.02
2022-08-19T08:21:55.552Z,31.54
2022-08-19T08:22:55.538Z,31.35
2022-08-19T08:23:56.195Z,31.34
2022-08-19T08:24:55.542Z,30.74
2022-08-19T08:25:55.508Z,30.13
2022-08-19T08:26:57.447Z,29.42
2022-08-19T08:27:55.632Z,28.44
2022-08-19T08:28:55.469Z,28.46
2022-08-19T08:29:55.456Z,28.83
2022-08-19T08:30:55.447Z,28.99
2022-08-19T08:31:58.449Z,29.05
2022-08-19T08:32:55.422Z,28.64
2022-08-19T08:33:55.408Z,28.20
2022-08-19T08:34:55.398Z,27.98
2022-08-19T08:35:55.385Z,28.68
2022-08-19T08:36:55.377Z,29.33
2022-08-19T08:37:55.691Z,29.54
2022-08-19T08:39:55.409Z,29.74
2022-08-19T08:40:55.330Z,28.71
2022-08-19T08:41:55.320Z,28.74
2022-08-19T08:42:55.362Z,29.14
2022-08-19T08:43:55.299Z,29.25
2022-08-19T08:45:55.274Z,30.53
2022-08-19T08:46:55.264Z,31.11
2022-08-19T08:47:55.279Z,31.25
2022-08-19T08:48:55.242Z,31.21
2022-08-19T08:49:55.230Z,31.58
2022-08-19T08:50:55.218Z,31.48
2022-08-19T08:51:56.220Z,30.78
2022-08-19T08:52:55.406Z,30.41
2022-08-19T08:53:56.018Z,30.13
2022-08-19T08:54:55.924Z,30.69
2022-08-19T08:55:55.155Z,29.64
2022-08-19T08:56:55.147Z,30.16
2022-08-19T08:57:55.240Z,30.05
2022-08-19T08:58:55.122Z,29.20
2022-08-19T08:59:55.111Z,29.44
2022-08-19T09:00:55.102Z,30.17
2022-08-19T09:01:55.200Z,31.03
2022-08-19T09:02:55.076Z,31.56
2022-08-19T09:03:55.063Z,31.62
2022-08-19T09:04:55.048Z,31.87
2022-08-19T09:05:55.034Z,32.47
2022-08-19T09:06:55.026Z,32.84
2022-08-19T09:07:55.231Z,32.12
2022-08-19T09:08:56.979Z,32.28
2022-08-19T09:09:56.144Z,32.79
2022-08-19T09:10:55.582Z,33.23
2022-08-19T09:11:54.966Z,33.77
2022-08-19T09:12:54.957Z,33.93
2022-08-19T09:13:54.947Z,33.19
2022-08-19T09:14:54.934Z,32.63
2022-08-19T09:15:54.924Z,32.66
2022-08-19T09:16:54.911Z,32.85
2022-08-19T09:17:55.077Z,33.03
2022-08-19T09:18:54.890Z,31.56
2022-08-19T09:19:54.876Z,29.11
2022-08-19T09:20:54.866Z,28.67
2022-08-19T09:21:54.855Z,28.64
2022-08-19T09:22:54.843Z,28.77
2022-08-19T09:23:54.830Z,29.85
2022-08-19T09:24:54.820Z,30.19
2022-08-19T09:25:54.814Z,30.39
2022-08-19T09:26:54.795Z,30.23
2022-08-19T09:27:55.407Z,29.64
2022-08-19T09:28:54.773Z,29.82
2022-08-19T09:29:54.757Z,30.05
2022-08-19T09:30:54.748Z,29.67
2022-08-19T09:31:54.735Z,30.90
2022-08-19T09:32:54.723Z,31.69
2022-08-19T09:33:54.710Z,31.20
2022-08-19T09:34:54.700Z,31.65
2022-08-19T09:35:54.688Z,32.43
2022-08-19T09:36:54.953Z,32.92
2022-08-19T09:37:57.394Z,33.41
2022-08-19T09:38:54.655Z,33.77
2022-08-19T09:39:54.681Z,34.00
2022-08-19T09:40:54.633Z,34.21
2022-08-19T09:41:54.620Z,34.15
2022-08-19T09:42:54.612Z,33.00
2022-08-19T09:43:54.597Z,31.11
2022-08-19T09:44:54.587Z,31.36
2022-08-19T09:45:54.575Z,31.57
2022-08-19T09:46:54.565Z,31.78
2022-08-19T09:47:55.113Z,32.06
2022-08-19T09:48:54.543Z,32.32
2022-08-19T09:49:54.528Z,32.89
2022-08-19T09:50:54.518Z,32.67
2022-08-19T09:51:54.507Z,32.34
2022-08-19T09:52:57.345Z,32.02
2022-08-19T09:53:54.487Z,31.81
2022-08-19T09:54:54.474Z,31.58
2022-08-19T09:55:54.459Z,30.90
2022-08-19T09:56:54.459Z,30.34
2022-08-19T09:57:54.665Z,30.22
2022-08-19T09:58:54.424Z,30.81
2022-08-19T09:59:54.417Z,31.43
2022-08-19T10:00:54.413Z,31.78
2022-08-19T10:01:54.385Z,32.14
2022-08-19T10:02:54.382Z,32.82
2022-08-19T10:03:54.362Z,32.72
2022-08-19T10:04:54.351Z,32.50
2022-08-19T10:05:55.364Z,32.10
2022-08-19T10:06:55.448Z,32.06
2022-08-19T10:07:54.602Z,32.36
2022-08-19T10:08:54.300Z,32.67
2022-08-19T10:09:54.286Z,32.94
2022-08-19T10:10:54.275Z,32.89
2022-08-19T10:11:54.693Z,31.44
2022-08-19T10:12:54.252Z,30.22
2022-08-19T10:13:54.239Z,30.63
2022-08-19T10:14:54.230Z,31.46
2022-08-19T10:15:54.216Z,31.70
2022-08-19T10:16:54.205Z,31.57
2022-08-19T10:17:54.971Z,31.47
2022-08-19T10:18:58.762Z,31.13
2022-08-19T10:19:55.908Z,29.64
2022-08-19T10:20:54.159Z,29.97
2022-08-19T10:21:54.147Z,30.61
2022-08-19T10:22:54.138Z,30.82
2022-08-19T10:23:54.125Z,31.17
2022-08-19T10:24:54.125Z,29.80
2022-08-19T10:25:54.103Z,28.89
2022-08-19T10:26:55.951Z,28.54
2022-08-19T10:27:55.863Z,28.58
2022-08-19T10:28:54.069Z,28.83
2022-08-19T10:29:54.055Z,29.73
2022-08-19T10:30:54.044Z,30.41
2022-08-19T10:32:00.948Z,30.85
2022-08-19T10:32:54.022Z,31.72
2022-08-19T10:33:54.307Z,32.43
2022-08-19T10:34:57.253Z,33.00
2022-08-19T10:35:56.990Z,31.56
2022-08-19T10:37:00.429Z,32.06
2022-08-19T10:37:57.384Z,31.68
2022-08-19T10:38:56.825Z,32.59
2022-08-19T10:39:53.997Z,33.49
2022-08-19T10:40:53.928Z,33.65
2022-08-19T10:41:53.913Z,34.17
2022-08-19T10:42:53.902Z,34.52
2022-08-19T10:43:53.889Z,34.53
2022-08-19T10:44:53.880Z,33.03
2022-08-19T10:45:53.867Z,33.09
2022-08-19T10:46:53.857Z,33.55
2022-08-19T10:47:53.960Z,34.17
2022-08-19T10:48:53.836Z,34.39
2022-08-19T10:49:53.822Z,33.16
2022-08-19T10:50:53.812Z,32.85
2022-08-19T10:51:53.800Z,33.43
2022-08-19T10:52:53.789Z,34.13
2022-08-19T10:53:53.776Z,33.97
2022-08-19T10:54:53.766Z,34.13
2022-08-19T10:55:53.753Z,33.58
2022-08-19T10:56:53.756Z,33.55
2022-08-19T10:58:03.891Z,31.13
2022-08-19T10:58:53.723Z,30.27
2022-08-19T10:59:53.709Z,30.98
2022-08-19T11:00:53.728Z,31.50
2022-08-19T11:01:53.685Z,32.43
2022-08-19T11:02:53.679Z,33.30
2022-08-19T11:03:53.664Z,34.30
2022-08-19T11:04:53.654Z,34.91
2022-08-19T11:05:53.639Z,35.36
2022-08-19T11:06:53.631Z,35.59
2022-08-19T11:07:53.883Z,35.70
2022-08-19T11:08:53.609Z,36.30
2022-08-19T11:09:53.598Z,36.80
2022-08-19T11:10:53.585Z,37.22
2022-08-19T11:11:53.575Z,36.64
2022-08-19T11:12:53.563Z,36.30
2022-08-19T11:13:53.554Z,36.48
2022-08-19T11:14:53.549Z,36.64
2022-08-19T11:15:53.533Z,34.37
2022-08-19T11:16:53.521Z,32.85
2022-08-19T11:17:53.699Z,31.95
2022-08-19T11:18:53.502Z,32.46
2022-08-19T11:19:53.489Z,33.50
2022-08-19T11:20:53.477Z,34.09
2022-08-19T11:21:53.468Z,34.46
2022-08-19T11:22:53.456Z,34.76
2022-08-19T11:24:53.437Z,35.66
2022-08-19T11:25:53.427Z,36.07
2022-08-19T11:26:53.415Z,35.35
2022-08-19T11:27:53.623Z,35.59
2022-08-19T11:28:53.397Z,35.10
2022-08-19T11:29:53.384Z,34.32
2022-08-19T11:30:53.373Z,33.56
2022-08-19T11:31:53.362Z,33.04
2022-08-19T11:32:53.348Z,32.99
2022-08-19T11:33:53.338Z,33.68
2022-08-19T11:34:53.325Z,34.27
2022-08-19T11:35:53.315Z,33.60
2022-08-19T11:36:53.304Z,32.14
2022-08-19T11:37:53.558Z,31.92
2022-08-19T11:38:53.280Z,32.59
2022-08-19T11:39:53.282Z,33.46
2022-08-19T11:40:53.257Z,34.47
2022-08-19T11:41:53.247Z,35.48
2022-08-19T11:42:53.235Z,35.81
2022-08-19T11:43:53.225Z,35.17
2022-08-19T11:44:53.213Z,34.53
2022-08-19T11:45:53.203Z,33.64
2022-08-19T11:46:53.193Z,32.97
2022-08-19T11:47:53.403Z,32.39
2022-08-19T11:48:53.167Z,32.09
2022-08-19T11:49:53.157Z,33.00
2022-08-19T11:50:53.145Z,33.64
2022-08-19T11:51:53.807Z,33.94
2022-08-19T11:52:53.123Z,33.86
2022-08-19T11:53:53.111Z,34.05
2022-08-19T11:54:53.100Z,34.66
2022-08-19T11:55:53.098Z,34.90
2022-08-19T11:56:53.077Z,35.65
2022-08-19T11:57:53.250Z,35.56
2022-08-19T11:58:53.054Z,34.21
2022-08-19T11:59:53.044Z,32.74
2022-08-19T12:00:53.033Z,32.25
2022-08-19T12:01:53.023Z,32.12
2022-08-19T12:02:53.015Z,31.50
2022-08-19T12:03:53.080Z,31.44
2022-08-19T12:04:52.983Z,31.54
2022-08-19T12:05:52.973Z,31.72
2022-08-19T12:06:52.960Z,31.50
2022-08-19T12:07:53.079Z,31.50
2022-08-19T12:08:52.934Z,32.49
2022-08-19T12:09:52.924Z,33.44
2022-08-19T12:10:52.910Z,34.31
2022-08-19T12:11:52.900Z,34.79
2022-08-19T12:12:55.802Z,34.53
2022-08-19T12:13:52.875Z,34.80
2022-08-19T12:14:52.863Z,34.80
2022-08-19T12:15:52.853Z,34.72
2022-08-19T12:16:52.840Z,35.05
2022-08-19T12:17:53.044Z,35.06
2022-08-19T12:18:52.818Z,34.83
2022-08-19T12:19:52.808Z,34.69
2022-08-19T12:20:52.793Z,35.37
2022-08-19T12:21:52.783Z,35.77
2022-08-19T12:22:52.772Z,36.14
2022-08-19T12:23:55.789Z,36.42
2022-08-19T12:24:52.748Z,36.79
2022-08-19T12:25:52.920Z,37.13
2022-08-19T12:26:53.655Z,37.50
2022-08-19T12:27:57.349Z,37.96
2022-08-19T12:28:52.703Z,38.28
2022-08-19T12:29:52.692Z,38.28
2022-08-19T12:30:52.681Z,37.83
2022-08-19T12:31:52.678Z,37.62
2022-08-19T12:32:52.657Z,36.01
2022-08-19T12:33:52.646Z,35.43
2022-08-19T12:34:52.635Z,34.58
2022-08-19T12:35:52.625Z,34.65
2022-08-19T12:36:52.614Z,34.30
2022-08-19T12:37:56.742Z,34.69
2022-08-19T12:38:52.589Z,34.81
2022-08-19T12:39:52.688Z,34.15
2022-08-19T12:40:52.851Z,33.89
2022-08-19T12:41:54.739Z,33.62
2022-08-19T12:42:52.552Z,33.30
2022-08-19T12:43:52.535Z,33.60
2022-08-19T12:44:52.526Z,34.09
2022-08-19T12:45:52.511Z,33.28
2022-08-19T12:46:53.120Z,33.59
2022-08-19T12:47:54.947Z,34.61
2022-08-19T12:48:55.430Z,35.20
2022-08-19T12:49:55.505Z,34.90
2022-08-19T12:50:52.453Z,34.44
2022-08-19T12:51:52.445Z,34.25
2022-08-19T12:52:52.430Z,33.18
2022-08-19T12:53:52.421Z,33.12
2022-08-19T12:54:53.970Z,32.60
2022-08-19T12:55:52.398Z,32.06
2022-08-19T12:56:52.384Z,32.06
2022-08-19T12:57:52.374Z,32.43
2022-08-19T12:58:53.151Z,33.16
2022-08-19T12:59:52.351Z,34.22